Time;durP1;ratioP1;P1;durP2;ratioP2;P2;SDS_P1;SDS_P2;PMS_P1;PMS_P2;Temp;Humidity;BMP_temperature;BMP_pressure;BME280_temperature;BME280_humidity;BME280_pressure;Samples;Min_cycle;Max_cycle;Signal;HPM_P1;HPM_P2
2024/03/28 00:02:22;;;;;;;3.40;2.57;;;11.90;98.50;;;;;;4998507;28;20440;-24
2024/03/28 00:04:48;;;;;;;2.40;2.20;;;11.90;98.50;;;;;;4997572;28;20487;-25
2024/03/28 00:07:14;;;;;;;3.00;2.70;;;11.90;98.50;;;;;;4998565;28;20991;-25
2024/03/28 00:09:40;;;;;;;2.53;2.30;;;11.90;98.50;;;;;;4999565;28;21310;-24
2024/03/28 00:12:07;;;;;;;2.93;2.20;;;11.90;98.50;;;;;;4997634;28;20417;-25
2024/03/28 00:14:33;;;;;;;4.30;2.37;;;11.90;98.50;;;;;;4998656;28;20986;-25
2024/03/28 00:17:02;;;;;;;2.90;2.00;;;11.90;98.80;;;;;;4998831;28;20425;-24
2024/03/28 00:19:28;;;;;;;2.33;1.80;;;11.90;98.50;;;;;;4985039;28;20441;-25
2024/03/28 00:21:54;;;;;;;2.43;2.23;;;11.90;98.50;;;;;;4980300;28;20440;-23
2024/03/28 00:24:20;;;;;;;6.73;2.37;;;11.90;98.50;;;;;;4998231;28;20463;-23
2024/03/28 00:26:50;;;;;;;2.63;2.33;;;11.90;98.50;;;;;;4999085;28;20428;-23
2024/03/28 00:29:16;;;;;;;2.20;2.00;;;11.80;98.40;;;;;;4998214;28;20463;-24
2024/03/28 00:31:41;;;;;;;3.20;2.43;;;11.80;98.40;;;;;;4998696;28;20439;-22
2024/03/28 00:34:08;;;;;;;2.00;1.90;;;11.80;98.50;;;;;;4996493;28;20436;-24
2024/03/28 00:36:36;;;;;;;2.53;2.13;;;11.80;98.40;;;;;;4997205;28;20468;-23
2024/03/28 00:39:04;;;;;;;3.30;2.93;;;11.80;98.40;;;;;;4996796;28;20869;-25
2024/03/28 00:41:30;;;;;;;4.20;2.40;;;11.80;98.40;;;;;;4998412;28;20421;-24
2024/03/28 00:43:56;;;;;;;3.00;2.20;;;11.80;98.40;;;;;;4998245;28;20430;-26
2024/03/28 00:46:25;;;;;;;2.60;2.23;;;11.80;98.40;;;;;;4996805;28;20881;-24
2024/03/28 00:48:51;;;;;;;2.57;2.23;;;11.80;98.40;;;;;;4996563;28;20448;-23
2024/03/28 00:51:17;;;;;;;2.30;1.80;;;11.80;98.50;;;;;;4998599;28;20474;-23
2024/03/28 00:53:45;;;;;;;2.63;2.00;;;11.80;98.50;;;;;;4978530;28;20436;-22
2024/03/28 00:56:11;;;;;;;2.47;2.20;;;11.80;98.50;;;;;;4997082;28;20540;-24
2024/03/28 00:58:37;;;;;;;2.67;2.47;;;11.80;98.40;;;;;;4996982;28;20444;-24
2024/03/28 01:01:03;;;;;;;2.43;2.17;;;11.80;98.40;;;;;;4995704;28;20507;-26
2024/03/28 01:03:32;;;;;;;2.43;2.23;;;11.80;98.40;;;;;;4998101;28;20436;-26
2024/03/28 01:05:58;;;;;;;4.33;2.27;;;11.80;98.40;;;;;;4998370;28;20469;-24
2024/03/28 01:08:25;;;;;;;3.33;2.37;;;11.80;98.40;;;;;;4981181;28;20462;-25
2024/03/28 01:10:51;;;;;;;2.30;2.10;;;11.80;98.40;;;;;;4997246;28;20426;-23
2024/03/28 01:13:17;;;;;;;2.70;2.50;;;11.80;98.40;;;;;;4998390;28;20504;-23
2024/03/28 01:15:42;;;;;;;2.40;2.20;;;11.80;98.40;;;;;;4998813;28;20479;-23
2024/03/28 01:18:09;;;;;;;3.10;2.30;;;11.80;98.30;;;;;;4995395;28;20454;-25
2024/03/28 01:20:35;;;;;;;2.63;2.40;;;11.80;98.30;;;;;;4998154;28;20277;-25
2024/03/28 01:23:04;;;;;;;2.60;2.40;;;11.80;98.30;;;;;;4996962;28;20436;-24
2024/03/28 01:25:30;;;;;;;3.10;2.27;;;11.70;98.20;;;;;;4992357;28;20435;-25
2024/03/28 01:27:56;;;;;;;2.33;2.13;;;11.70;98.20;;;;;;4996116;28;20455;-26
2024/03/28 01:30:22;;;;;;;3.47;2.30;;;11.70;98.10;;;;;;5001234;28;20443;-24
2024/03/28 01:32:49;;;;;;;2.47;2.27;;;11.70;98.10;;;;;;4980307;28;20441;-25
2024/03/28 01:35:15;;;;;;;2.50;2.30;;;11.70;98.10;;;;;;4998159;28;20468;-23
2024/03/28 01:37:41;;;;;;;2.40;2.20;;;11.70;98.10;;;;;;5000129;28;20994;-24
2024/03/28 01:40:12;;;;;;;2.50;2.10;;;11.70;98.10;;;;;;4984379;28;20995;-24
2024/03/28 01:42:40;;;;;;;2.40;1.80;;;11.70;98.10;;;;;;5000590;28;20453;-25
2024/03/28 01:45:07;;;;;;;3.80;2.53;;;11.70;98.00;;;;;;4998236;28;20475;-23
2024/03/28 01:47:33;;;;;;;2.27;1.97;;;11.70;98.10;;;;;;5001313;28;20529;-24
2024/03/28 01:50:00;;;;;;;2.20;2.00;;;11.70;98.10;;;;;;4996741;28;21256;-24
2024/03/28 01:52:26;;;;;;;2.43;2.10;;;11.70;98.10;;;;;;5001980;28;21050;-24
2024/03/28 01:54:53;;;;;;;2.10;1.80;;;11.70;98.10;;;;;;4983970;28;20483;-23
2024/03/28 01:57:21;;;;;;;2.30;2.10;;;11.70;98.10;;;;;;5000094;28;20459;-25
2024/03/28 01:59:51;;;;;;;2.10;1.90;;;11.60;98.10;;;;;;4983541;28;20532;-23
2024/03/28 02:02:19;;;;;;;2.60;2.10;;;11.60;98.00;;;;;;5001833;28;20420;-24
2024/03/28 02:04:46;;;;;;;2.50;2.30;;;11.60;98.00;;;;;;5001233;28;20511;-24
2024/03/28 02:07:12;;;;;;;2.20;1.83;;;11.60;98.00;;;;;;4999675;28;21134;-24
2024/03/28 02:09:38;;;;;;;4.70;1.80;;;11.70;98.00;;;;;;4999589;28;20420;-25
2024/03/28 02:12:05;;;;;;;2.60;1.90;;;11.60;97.90;;;;;;5000530;28;20456;-23
2024/03/28 02:14:30;;;;;;;1.80;1.70;;;11.60;97.90;;;;;;4997052;28;20491;-25
2024/03/28 02:17:05;;;;;;;2.13;1.87;;;11.60;97.90;;;;;;4983160;28;20480;-26
2024/03/28 02:19:36;;;;;;;1.70;1.60;;;11.60;97.90;;;;;;5001586;28;20201;-25
2024/03/28 02:22:02;;;;;;;2.20;1.90;;;11.60;97.90;;;;;;5001781;28;20439;-23
2024/03/28 02:24:29;;;;;;;1.90;1.70;;;11.60;97.80;;;;;;5000890;28;21131;-26
2024/03/28 02:26:56;;;;;;;1.80;1.70;;;11.60;97.80;;;;;;5000813;28;20518;-26
2024/03/28 02:29:24;;;;;;;4.30;2.10;;;11.60;97.80;;;;;;5000959;28;21085;-23
2024/03/28 02:31:50;;;;;;;2.73;2.03;;;11.60;97.80;;;;;;4999049;28;20424;-23
2024/03/28 02:34:16;;;;;;;2.13;1.93;;;11.60;97.80;;;;;;5000027;28;20484;-23
2024/03/28 02:36:42;;;;;;;2.43;2.03;;;11.60;97.80;;;;;;5000668;28;20476;-23
2024/03/28 02:39:10;;;;;;;2.10;1.90;;;11.60;97.80;;;;;;5000571;28;20451;-24
2024/03/28 02:41:37;;;;;;;1.70;1.60;;;11.60;97.80;;;;;;5000374;28;20441;-25
2024/03/28 02:44:05;;;;;;;2.10;1.90;;;11.60;97.80;;;;;;4995224;28;20422;-23
2024/03/28 02:46:35;;;;;;;2.10;1.90;;;11.60;97.80;;;;;;4982973;28;20471;-24
2024/03/28 02:49:04;;;;;;;2.00;1.70;;;11.60;97.70;;;;;;4983150;28;20826;-23
2024/03/28 02:51:32;;;;;;;2.10;1.70;;;11.50;97.70;;;;;;4999132;28;20433;-24
2024/03/28 02:53:58;;;;;;;2.30;1.97;;;11.50;97.70;;;;;;5000276;28;20498;-25
2024/03/28 02:56:27;;;;;;;1.90;1.80;;;11.50;97.70;;;;;;4993990;28;20476;-25
2024/03/28 02:58:53;;;;;;;2.60;1.60;;;11.50;97.70;;;;;;4994848;28;20460;-25
2024/03/28 03:01:19;;;;;;;2.20;2.00;;;11.50;97.70;;;;;;4998487;28;20522;-24
2024/03/28 03:03:45;;;;;;;2.00;1.73;;;11.50;97.70;;;;;;4999937;28;21046;-25
2024/03/28 03:06:11;;;;;;;3.07;2.00;;;11.50;97.70;;;;;;4998532;28;20440;-25
2024/03/28 03:08:39;;;;;;;2.23;1.63;;;11.50;97.70;;;;;;4998954;28;20456;-23
2024/03/28 03:11:05;;;;;;;2.20;1.80;;;11.50;97.70;;;;;;5000398;28;20523;-25
2024/03/28 03:13:31;;;;;;;1.70;1.60;;;11.50;97.70;;;;;;4999763;28;20433;-22
2024/03/28 03:16:03;;;;;;;2.50;2.13;;;11.50;97.80;;;;;;4997921;28;20476;-23
2024/03/28 03:18:32;;;;;;;2.60;2.37;;;11.50;97.80;;;;;;4998553;28;20898;-24
2024/03/28 03:21:07;;;;;;;2.23;2.03;;;11.40;97.70;;;;;;4998638;28;20446;-24
2024/03/28 03:23:46;;;;;;;2.03;1.87;;;11.50;97.70;;;;;;4997456;28;20451;-23
2024/03/28 03:26:19;;;;;;;2.20;2.00;;;11.50;97.70;;;;;;4998621;28;20444;-26
2024/03/28 03:34:39;;;;;;;4.47;2.30;;;11.40;98.00;;;;;;4980764;28;21425;-28
2024/03/28 03:37:12;;;;;;;2.00;1.60;;;11.40;97.60;;;;;;4995726;28;20418;-29
2024/03/28 03:39:42;;;;;;;2.30;2.10;;;11.40;97.70;;;;;;4959924;28;20414;-28
2024/03/28 03:42:08;;;;;;;2.50;1.80;;;11.40;97.60;;;;;;4961786;28;20425;-29
2024/03/28 03:44:34;;;;;;;3.50;2.00;;;11.40;97.60;;;;;;4961561;28;20418;-28
2024/03/28 03:47:01;;;;;;;3.13;2.10;;;11.40;97.60;;;;;;4961463;28;20415;-28
2024/03/28 03:49:27;;;;;;;3.10;2.13;;;11.40;97.50;;;;;;4960565;28;20458;-28
2024/03/28 03:51:56;;;;;;;2.93;1.67;;;11.40;97.50;;;;;;4961375;28;20411;-28
2024/03/28 03:54:22;;;;;;;2.73;2.00;;;11.40;97.50;;;;;;4959663;28;20794;-28
2024/03/28 03:56:48;;;;;;;3.37;1.93;;;11.40;97.80;;;;;;4959891;28;20505;-28
2024/03/28 03:59:14;;;;;;;2.60;2.27;;;11.40;97.60;;;;;;4961790;28;20569;-28
2024/03/28 04:01:40;;;;;;;2.27;2.07;;;11.40;97.60;;;;;;4962062;28;20454;-28
2024/03/28 04:04:06;;;;;;;4.20;2.00;;;11.40;97.90;;;;;;4943608;28;20419;-29
2024/03/28 04:06:32;;;;;;;2.23;2.03;;;11.40;97.60;;;;;;4961007;28;20431;-29
2024/03/28 04:08:58;;;;;;;3.20;2.30;;;11.40;97.60;;;;;;4960263;28;20472;-28
2024/03/28 04:11:24;;;;;;;2.20;2.00;;;11.40;97.60;;;;;;4961506;28;20991;-29
2024/03/28 04:13:50;;;;;;;2.70;2.47;;;11.40;97.60;;;;;;4960834;28;20765;-29
2024/03/28 04:16:19;;;;;;;3.07;2.10;;;11.40;97.60;;;;;;4960410;28;20470;-28
2024/03/28 04:18:45;;;;;;;2.20;1.90;;;11.40;97.60;;;;;;4959293;28;21235;-28
2024/03/28 04:21:11;;;;;;;5.40;2.20;;;11.40;97.50;;;;;;4960682;28;20423;-29
2024/03/28 04:23:37;;;;;;;2.33;2.13;;;11.40;97.50;;;;;;4961021;28;20442;-29
2024/03/28 04:26:04;;;;;;;3.73;2.43;;;11.40;97.50;;;;;;4942813;28;20429;-28
2024/03/28 04:28:29;;;;;;;2.30;1.80;;;11.30;97.50;;;;;;4959634;28;20478;-28
2024/03/28 04:30:55;;;;;;;2.60;2.40;;;11.30;97.50;;;;;;4960651;28;20450;-29
2024/03/28 04:33:23;;;;;;;3.03;1.97;;;11.30;97.50;;;;;;4958711;28;20449;-28
2024/03/28 04:35:49;;;;;;;3.53;2.00;;;11.30;97.50;;;;;;4958378;28;20466;-29
2024/03/28 04:38:15;;;;;;;2.27;2.07;;;11.30;97.50;;;;;;4959960;28;20234;-29
2024/03/28 04:40:41;;;;;;;2.30;2.10;;;11.30;97.50;;;;;;4960327;28;20477;-28
2024/03/28 04:43:09;;;;;;;2.57;2.10;;;11.30;97.50;;;;;;4958711;28;20529;-28
2024/03/28 04:45:37;;;;;;;2.47;2.27;;;11.30;97.50;;;;;;4958553;28;20453;-28
2024/03/28 04:48:04;;;;;;;4.20;2.50;;;11.30;97.40;;;;;;4960749;28;20511;-27
2024/03/28 04:50:31;;;;;;;2.47;2.27;;;11.30;97.40;;;;;;4958790;28;20429;-28
2024/03/28 04:52:57;;;;;;;2.83;2.10;;;11.30;97.40;;;;;;4959161;28;20474;-28
2024/03/28 04:55:23;;;;;;;2.73;2.50;;;11.30;97.40;;;;;;4958849;28;20466;-29
2024/03/28 04:57:50;;;;;;;2.97;2.57;;;11.30;97.40;;;;;;4959154;28;20930;-28
2024/03/28 05:00:16;;;;;;;2.80;2.03;;;11.30;97.40;;;;;;4958567;28;20869;-28
2024/03/28 05:02:42;;;;;;;2.40;2.20;;;11.30;97.50;;;;;;4960233;28;20442;-28
2024/03/28 05:05:11;;;;;;;2.97;2.70;;;11.30;97.40;;;;;;4963789;28;20418;-29
2024/03/28 05:07:37;;;;;;;2.10;1.80;;;11.30;97.30;;;;;;4964109;28;20450;-28
2024/03/28 05:10:07;;;;;;;2.23;1.90;;;11.30;97.30;;;;;;4962854;28;20486;-29
2024/03/28 05:12:33;;;;;;;2.37;2.17;;;11.30;97.30;;;;;;4962631;28;20425;-29
2024/03/28 05:15:01;;;;;;;2.33;2.13;;;11.30;97.30;;;;;;4963609;28;20451;-28
2024/03/28 05:17:31;;;;;;;2.43;2.23;;;11.20;97.30;;;;;;4962504;28;20441;-28
2024/03/28 05:19:57;;;;;;;4.57;3.20;;;11.20;97.30;;;;;;4962309;28;20528;-28
2024/03/28 05:22:27;;;;;;;2.60;2.30;;;11.20;97.30;;;;;;4961280;28;21477;-29
2024/03/28 05:24:55;;;;;;;3.30;2.83;;;11.20;97.30;;;;;;4961353;28;21247;-28
2024/03/28 05:27:25;;;;;;;2.60;2.40;;;11.20;97.30;;;;;;4964403;28;20497;-29
2024/03/28 05:29:51;;;;;;;3.50;2.57;;;11.20;97.30;;;;;;4946320;28;20433;-28
2024/03/28 05:32:17;;;;;;;2.43;2.20;;;11.20;97.30;;;;;;4960720;28;20422;-28
2024/03/28 05:34:47;;;;;;;2.20;2.00;;;11.20;97.30;;;;;;4976476;28;20457;-29
2024/03/28 05:37:13;;;;;;;2.70;2.50;;;11.20;97.20;;;;;;4945228;28;21038;-29
2024/03/28 05:39:44;;;;;;;5.97;2.80;;;11.20;97.30;;;;;;4960846;28;20481;-28
2024/03/28 05:42:10;;;;;;;2.80;2.50;;;11.20;97.20;;;;;;4960423;28;20446;-29
2024/03/28 05:44:36;;;;;;;3.00;2.73;;;11.20;97.20;;;;;;4960691;28;20415;-29
2024/03/28 05:47:02;;;;;;;3.10;2.10;;;11.20;97.20;;;;;;4961124;28;20422;-28
2024/03/28 05:49:28;;;;;;;2.87;2.57;;;11.20;97.20;;;;;;4963355;28;20575;-28
2024/03/28 05:51:54;;;;;;;3.03;2.73;;;11.20;97.20;;;;;;4961998;28;20428;-28
2024/03/28 05:54:22;;;;;;;3.33;2.70;;;11.10;97.10;;;;;;4962204;28;20430;-28
2024/03/28 05:56:48;;;;;;;2.60;2.23;;;11.10;97.10;;;;;;4963464;28;20466;-28
2024/03/28 05:59:14;;;;;;;3.17;2.67;;;11.10;97.10;;;;;;4961387;28;20505;-27
2024/03/28 06:01:41;;;;;;;2.97;2.67;;;11.10;97.10;;;;;;4960650;28;20831;-28
2024/03/28 06:04:07;;;;;;;3.43;2.80;;;11.10;97.10;;;;;;4962200;28;20457;-29
2024/03/28 06:06:33;;;;;;;2.80;2.10;;;11.10;97.10;;;;;;4960486;28;20458;-28
2024/03/28 06:08:59;;;;;;;2.77;2.40;;;11.10;97.10;;;;;;4977070;28;20485;-29
2024/03/28 06:11:26;;;;;;;2.83;2.23;;;11.10;97.10;;;;;;4962139;28;20458;-29
2024/03/28 06:13:55;;;;;;;2.83;2.60;;;11.10;97.10;;;;;;4962305;28;20445;-28
2024/03/28 06:16:21;;;;;;;3.10;2.80;;;11.10;97.10;;;;;;4961186;28;20478;-28
2024/03/28 06:18:47;;;;;;;2.33;2.13;;;11.10;97.10;;;;;;4962691;28;20458;-28
2024/03/28 06:21:15;;;;;;;2.90;2.60;;;11.10;97.10;;;;;;4962384;28;20556;-29
2024/03/28 06:23:42;;;;;;;2.80;2.03;;;11.10;97.10;;;;;;4982296;28;20854;-27
2024/03/28 06:26:08;;;;;;;7.47;3.00;;;11.10;97.10;;;;;;4962248;28;20458;-23
2024/03/28 06:28:37;;;;;;;3.07;2.70;;;11.10;97.00;;;;;;4971255;28;20590;-23
2024/03/28 06:31:04;;;;;;;2.40;2.20;;;11.10;97.00;;;;;;4961412;28;20427;-25
2024/03/28 06:33:30;;;;;;;2.70;2.50;;;11.10;97.00;;;;;;4962453;28;20640;-24
2024/03/28 06:35:55;;;;;;;3.70;2.80;;;11.10;97.00;;;;;;4964682;28;21394;-26
2024/03/28 06:38:23;;;;;;;3.10;2.80;;;11.10;96.90;;;;;;4963376;28;20502;-24
2024/03/28 06:40:58;;;;;;;2.73;2.53;;;11.10;96.90;;;;;;4955677;28;20426;-24
2024/03/28 06:43:27;;;;;;;3.00;2.70;;;11.10;96.90;;;;;;4951794;28;20496;-21
2024/03/28 06:45:53;;;;;;;3.10;2.80;;;11.00;96.90;;;;;;4969738;28;20926;-22
2024/03/28 06:48:19;;;;;;;3.67;3.23;;;11.10;96.90;;;;;;4972043;28;20445;-25
2024/03/28 06:50:45;;;;;;;2.97;2.67;;;11.10;97.00;;;;;;4967025;28;20421;-25
2024/03/28 06:53:11;;;;;;;4.80;2.80;;;11.10;97.00;;;;;;4970126;28;20478;-25
2024/03/28 06:55:37;;;;;;;3.30;2.80;;;11.10;97.00;;;;;;4971473;28;20523;-25
2024/03/28 06:58:04;;;;;;;3.30;3.00;;;11.10;96.90;;;;;;4976338;28;20446;-24
2024/03/28 07:00:33;;;;;;;4.33;3.20;;;11.10;96.90;;;;;;4973432;28;20422;-25
2024/03/28 07:03:00;;;;;;;3.97;3.43;;;11.10;96.80;;;;;;4961769;28;20442;-25
2024/03/28 07:05:30;;;;;;;3.37;3.07;;;11.10;96.80;;;;;;4969988;28;20456;-25
2024/03/28 07:08:02;;;;;;;2.73;2.53;;;11.10;96.90;;;;;;4961011;28;20446;-24
2024/03/28 07:10:28;;;;;;;3.93;3.20;;;11.10;96.80;;;;;;4979120;28;21101;-25
2024/03/28 07:12:59;;;;;;;3.50;3.03;;;11.10;96.90;;;;;;4967238;28;20485;-25
2024/03/28 07:15:25;;;;;;;3.13;2.50;;;11.10;96.80;;;;;;4964177;28;20516;-22
2024/03/28 07:17:51;;;;;;;3.40;3.10;;;11.10;96.90;;;;;;4963518;28;20550;-24
2024/03/28 07:20:19;;;;;;;4.13;3.00;;;11.00;96.80;;;;;;4964281;28;20521;-26
2024/03/28 07:22:45;;;;;;;3.77;2.90;;;11.10;96.80;;;;;;4960426;28;21084;-25
2024/03/28 07:25:11;;;;;;;4.10;2.57;;;11.10;96.80;;;;;;4957256;28;20430;-25
2024/03/28 07:27:39;;;;;;;3.10;2.80;;;11.10;96.70;;;;;;4958618;28;20891;-25
2024/03/28 07:30:06;;;;;;;3.70;2.97;;;11.10;96.70;;;;;;4957822;28;20494;-25
2024/03/28 07:32:34;;;;;;;3.83;2.90;;;11.10;96.70;;;;;;4959225;28;20447;-25
2024/03/28 07:35:00;;;;;;;3.40;2.50;;;11.10;96.60;;;;;;4959241;28;20438;-25
2024/03/28 07:37:26;;;;;;;3.23;2.43;;;11.10;96.50;;;;;;4957624;28;20683;-25
2024/03/28 07:39:55;;;;;;;2.80;2.60;;;11.10;96.50;;;;;;4957958;28;20901;-26
2024/03/28 07:42:23;;;;;;;2.23;2.03;;;11.10;96.50;;;;;;4957733;28;21000;-25
2024/03/28 07:44:49;;;;;;;2.70;2.37;;;11.10;96.50;;;;;;4956488;28;20517;-26
2024/03/28 07:47:15;;;;;;;2.90;2.60;;;11.10;96.50;;;;;;4955337;28;21201;-26
2024/03/28 07:49:45;;;;;;;3.03;2.73;;;11.10;96.50;;;;;;4960099;28;20438;-26
2024/03/28 07:52:12;;;;;;;3.27;2.97;;;11.10;96.50;;;;;;4955572;28;20479;-26
2024/03/28 07:54:40;;;;;;;3.00;2.70;;;11.10;96.60;;;;;;4956252;28;20434;-26
2024/03/28 07:57:07;;;;;;;2.47;2.27;;;11.10;96.60;;;;;;4955232;28;20478;-25
2024/03/28 07:59:35;;;;;;;2.77;2.57;;;11.10;96.60;;;;;;4958230;28;20451;-25
2024/03/28 08:02:06;;;;;;;2.57;2.37;;;11.10;96.60;;;;;;4940347;28;21320;-25
2024/03/28 08:04:32;;;;;;;2.80;2.50;;;11.10;96.70;;;;;;4954371;28;20454;-25
2024/03/28 08:06:59;;;;;;;2.60;2.40;;;11.10;96.80;;;;;;4958360;28;20454;-26
2024/03/28 08:09:26;;;;;;;2.60;2.10;;;11.10;96.80;;;;;;4956464;28;20896;-25
2024/03/28 08:11:52;;;;;;;2.60;2.40;;;11.10;96.90;;;;;;4953496;28;20432;-25
2024/03/28 08:14:18;;;;;;;3.27;2.63;;;11.10;96.90;;;;;;4959453;28;20517;-24
2024/03/28 08:16:46;;;;;;;2.97;2.67;;;11.10;97.00;;;;;;4960353;28;20481;-25
2024/03/28 08:19:13;;;;;;;2.77;2.53;;;11.10;97.20;;;;;;4958675;28;20499;-25
2024/03/28 08:21:41;;;;;;;2.90;2.70;;;11.10;97.30;;;;;;4954494;28;20446;-27
2024/03/28 08:24:07;;;;;;;3.00;1.90;;;11.10;97.30;;;;;;4957400;28;20502;-27
2024/03/28 08:26:33;;;;;;;2.50;2.30;;;11.10;97.40;;;;;;4952357;28;20515;-27
2024/03/28 08:29:00;;;;;;;3.00;2.63;;;11.10;97.50;;;;;;4956052;28;20526;-27
2024/03/28 08:31:26;;;;;;;2.60;2.37;;;11.10;97.60;;;;;;4952909;28;20506;-26
2024/03/28 08:33:55;;;;;;;3.10;2.50;;;11.10;97.60;;;;;;4955919;28;20533;-27
2024/03/28 08:36:22;;;;;;;3.50;2.67;;;11.10;97.70;;;;;;4957507;28;20477;-26
2024/03/28 08:38:48;;;;;;;4.10;2.50;;;11.10;97.70;;;;;;4938987;28;20455;-28
2024/03/28 08:41:15;;;;;;;2.47;2.27;;;11.10;97.80;;;;;;4952382;28;20600;-26
2024/03/28 08:43:48;;;;;;;3.03;2.60;;;11.10;97.80;;;;;;4957199;28;20959;-26
2024/03/28 08:46:14;;;;;;;3.07;2.77;;;11.10;97.80;;;;;;4953437;28;20450;-26
2024/03/28 08:48:46;;;;;;;4.03;3.17;;;11.10;97.80;;;;;;4955286;28;20811;-26
2024/03/28 08:51:21;;;;;;;3.40;3.00;;;11.10;97.90;;;;;;4957259;28;20986;-27
2024/03/28 08:53:47;;;;;;;4.17;3.37;;;11.10;98.00;;;;;;4955157;28;20423;-25
2024/03/28 08:56:13;;;;;;;3.63;3.03;;;11.10;98.10;;;;;;4957413;28;20480;-27
2024/03/28 08:58:39;;;;;;;3.97;2.93;;;11.10;98.20;;;;;;4953054;28;20522;-27
2024/03/28 09:01:10;;;;;;;4.83;3.07;;;11.10;98.20;;;;;;4957343;28;20474;-27
2024/03/28 09:03:39;;;;;;;3.97;3.47;;;11.10;98.30;;;;;;4952645;28;20446;-27
2024/03/28 09:06:09;;;;;;;3.30;2.93;;;11.10;98.40;;;;;;4959662;28;20771;-26
2024/03/28 09:08:38;;;;;;;3.63;3.10;;;11.10;98.40;;;;;;4962802;28;20439;-27
2024/03/28 09:11:08;;;;;;;3.53;3.07;;;11.10;98.50;;;;;;4959966;28;21294;-29
2024/03/28 09:13:34;;;;;;;4.87;2.50;;;11.10;98.50;;;;;;4961138;28;20554;-28
2024/03/28 09:16:01;;;;;;;2.90;2.53;;;11.10;98.50;;;;;;4958539;28;20459;-28
2024/03/28 09:18:27;;;;;;;3.40;2.77;;;11.10;98.60;;;;;;4958783;28;20657;-29
2024/03/28 09:20:54;;;;;;;5.20;2.83;;;11.10;98.70;;;;;;4959396;28;20450;-28
2024/03/28 09:23:20;;;;;;;2.93;2.60;;;11.10;98.70;;;;;;4958050;28;20554;-27
2024/03/28 09:25:46;;;;;;;5.47;2.53;;;11.10;98.70;;;;;;4957663;28;20466;-29
2024/03/28 09:28:13;;;;;;;2.43;2.23;;;11.10;98.80;;;;;;5033824;22;20502;-36
2024/03/28 09:30:39;;;;;;;3.10;2.73;;;11.10;98.80;;;;;;4980331;28;20437;-34
2024/03/28 09:33:08;;;;;;;2.90;2.30;;;11.10;98.90;;;;;;4998445;28;20490;-30
2024/03/28 09:35:38;;;;;;;3.43;2.60;;;11.10;99.00;;;;;;4998955;28;21272;-32
2024/03/28 09:38:04;;;;;;;3.37;2.20;;;11.10;99.00;;;;;;4998766;28;20456;-37
2024/03/28 09:40:46;;;;;;;3.60;2.30;;;11.10;99.00;;;;;;4981390;28;20428;-35
2024/03/28 09:43:19;;;;;;;2.80;2.43;;;11.10;99.10;;;;;;4997964;28;20741;-32
2024/03/28 09:45:45;;;;;;;3.37;2.57;;;11.10;99.10;;;;;;4998175;28;20417;-33
2024/03/28 09:48:15;;;;;;;3.30;1.70;;;11.10;99.10;;;;;;4996296;28;20475;-33
2024/03/28 09:50:43;;;;;;;3.00;2.10;;;11.10;99.10;;;;;;4998978;28;20812;-33
2024/03/28 09:53:10;;;;;;;2.90;1.90;;;11.10;99.10;;;;;;4999796;28;20413;-33
2024/03/28 09:55:39;;;;;;;2.70;2.17;;;11.10;99.20;;;;;;5001598;28;20962;-33
2024/03/28 09:58:09;;;;;;;4.20;2.23;;;11.10;99.20;;;;;;5000121;28;20456;-30
2024/03/28 10:00:38;;;;;;;4.17;2.33;;;11.10;99.20;;;;;;4999910;28;20810;-38
2024/03/28 10:03:32;;;;;;;2.73;2.13;;;11.10;99.30;;;;;;4999938;28;20495;-36
2024/03/28 10:05:58;;;;;;;5.83;1.70;;;11.10;99.30;;;;;;5000118;28;20515;-35
2024/03/28 10:08:28;;;;;;;2.47;2.17;;;11.10;99.30;;;;;;4999732;28;20536;-33
2024/03/28 10:10:54;;;;;;;2.90;2.43;;;11.10;99.40;;;;;;4983734;28;20459;-34
2024/03/28 10:13:34;;;;;;;2.47;2.20;;;11.10;99.40;;;;;;4982681;28;20951;-35
2024/03/28 10:16:01;;;;;;;3.03;2.30;;;11.10;99.50;;;;;;5000876;28;20560;-34
2024/03/28 10:18:30;;;;;;;2.03;1.83;;;11.10;99.70;;;;;;4999004;28;20437;-32
2024/03/28 10:20:57;;;;;;;2.83;2.20;;;11.10;99.60;;;;;;4982869;28;20811;-34
2024/03/28 10:23:27;;;;;;;3.00;1.77;;;11.10;99.70;;;;;;5005676;28;20484;-33
2024/03/28 10:25:59;;;;;;;2.60;1.90;;;11.10;99.60;;;;;;5002170;28;20459;-30
2024/03/28 10:28:31;;;;;;;2.70;2.07;;;11.10;99.60;;;;;;5000371;28;20483;-35
2024/03/28 10:31:00;;;;;;;2.93;1.80;;;11.10;99.70;;;;;;4999346;28;20467;-34
2024/03/28 10:33:26;;;;;;;3.40;1.97;;;11.10;99.70;;;;;;4999112;28;21169;-38
2024/03/28 10:35:56;;;;;;;2.13;1.67;;;11.10;99.60;;;;;;4999064;28;20582;-37
2024/03/28 10:38:26;;;;;;;2.53;2.13;;;11.10;99.70;;;;;;5001028;28;20437;-34
2024/03/28 10:41:00;;;;;;;2.80;1.87;;;11.10;99.90;;;;;;4999175;28;20429;-38
2024/03/28 10:43:27;;;;;;;2.53;1.83;;;11.10;99.90;;;;;;5001178;28;20470;-30
2024/03/28 10:46:02;;;;;;;2.20;1.90;;;11.10;99.90;;;;;;5000952;28;20874;-36
2024/03/28 10:48:31;;;;;;;2.50;1.90;;;11.10;99.90;;;;;;4999235;28;20967;-34
2024/03/28 10:51:12;;;;;;;2.07;1.37;;;11.10;99.90;;;;;;5000639;28;20421;-39
2024/03/28 10:53:49;;;;;;;1.87;1.67;;;11.10;99.90;;;;;;4998650;28;20417;-36
2024/03/28 10:56:20;;;;;;;2.60;1.60;;;11.10;99.90;;;;;;4998635;28;21025;-34
2024/03/28 10:58:49;;;;;;;1.70;1.60;;;11.10;99.90;;;;;;5000955;28;20476;-34
2024/03/28 11:01:16;;;;;;;1.53;1.10;;;11.10;99.90;;;;;;4998295;28;20520;-36
2024/03/28 11:03:46;;;;;;;1.70;1.17;;;11.10;99.90;;;;;;4998580;28;20413;-33
2024/03/28 11:06:16;;;;;;;3.53;1.30;;;11.10;99.90;;;;;;5000155;28;20868;-36
2024/03/28 11:08:45;;;;;;;2.00;1.50;;;11.10;99.90;;;;;;5000102;28;20915;-33
2024/03/28 11:11:14;;;;;;;1.13;1.00;;;11.10;99.90;;;;;;4999443;28;21262;-34
2024/03/28 11:13:41;;;;;;;1.40;1.13;;;11.10;99.90;;;;;;5000086;28;20460;-36
2024/03/28 11:16:09;;;;;;;3.30;1.17;;;11.10;99.90;;;;;;4999856;28;20464;-37
2024/03/28 11:18:36;;;;;;;3.57;1.90;;;11.10;99.90;;;;;;5001333;28;20481;-39
2024/03/28 11:21:04;;;;;;;1.73;1.10;;;11.10;99.90;;;;;;5004355;28;20448;-35
2024/03/28 11:23:33;;;;;;;1.10;0.93;;;11.20;99.90;;;;;;5001254;28;20454;-36
2024/03/28 11:26:07;;;;;;;1.73;1.10;;;11.20;99.90;;;;;;4995219;28;20483;-39
2024/03/28 11:28:39;;;;;;;2.00;1.20;;;11.20;99.90;;;;;;4997323;28;20492;-33
2024/03/28 11:31:06;;;;;;;2.30;1.30;;;11.10;99.90;;;;;;5002382;28;20516;-36
2024/03/28 11:33:41;;;;;;;2.47;1.30;;;11.20;99.90;;;;;;4998043;28;20444;-28
2024/03/28 11:36:09;;;;;;;2.47;1.57;;;11.20;99.90;;;;;;4995790;28;20467;-27
2024/03/28 11:38:39;;;;;;;1.10;1.00;;;11.20;99.90;;;;;;4997693;28;20467;-28
2024/03/28 11:41:09;;;;;;;1.20;1.10;;;11.20;99.90;;;;;;4998095;28;20983;-30
2024/03/28 11:43:36;;;;;;;3.87;1.50;;;11.20;99.90;;;;;;4998605;28;20536;-29
2024/03/28 11:46:03;;;;;;;2.40;1.47;;;11.20;99.90;;;;;;4997860;28;20444;-30
2024/03/28 11:48:36;;;;;;;3.77;1.90;;;11.20;99.90;;;;;;4998112;28;20443;-29
2024/03/28 11:51:04;;;;;;;2.27;1.63;;;11.30;99.90;;;;;;4998176;28;20429;-29
2024/03/28 11:53:36;;;;;;;1.13;1.03;;;11.30;99.90;;;;;;4996432;28;20486;-33
2024/03/28 11:56:02;;;;;;;1.43;1.30;;;11.30;99.90;;;;;;4998342;28;20880;-28
2024/03/28 11:58:29;;;;;;;1.27;1.13;;;11.30;99.90;;;;;;4998740;28;20449;-28
2024/03/28 12:01:03;;;;;;;1.10;1.00;;;11.30;99.90;;;;;;4997947;28;20436;-32
2024/03/28 12:03:31;;;;;;;2.43;1.50;;;11.30;99.90;;;;;;4996721;28;20432;-26
2024/03/28 12:05:59;;;;;;;1.27;0.90;;;11.30;99.90;;;;;;4998155;28;20425;-27
2024/03/28 12:08:30;;;;;;;1.70;1.03;;;11.30;99.90;;;;;;4980360;28;20460;-30
2024/03/28 12:11:05;;;;;;;2.43;0.80;;;11.30;99.90;;;;;;4998114;28;20568;-28
2024/03/28 12:13:36;;;;;;;1.30;1.20;;;11.30;99.60;;;;;;4993628;28;20494;-28
2024/03/28 12:16:05;;;;;;;1.60;1.20;;;11.30;99.20;;;;;;4999254;28;20475;-28
2024/03/28 12:18:36;;;;;;;1.53;0.83;;;11.40;99.00;;;;;;4996383;28;20453;-26
2024/03/28 12:21:05;;;;;;;2.70;1.30;;;11.40;98.80;;;;;;4998637;28;20436;-29
2024/03/28 12:23:35;;;;;;;1.30;0.90;;;11.40;98.70;;;;;;4997772;28;20428;-30
2024/03/28 12:26:01;;;;;;;1.20;1.10;;;11.40;98.60;;;;;;4999195;28;20428;-31
2024/03/28 12:28:29;;;;;;;1.10;0.80;;;11.40;98.50;;;;;;5000268;28;20453;-31
2024/03/28 12:31:00;;;;;;;1.20;0.73;;;11.40;98.40;;;;;;5000319;28;20475;-28
2024/03/28 12:33:26;;;;;;;1.17;1.00;;;11.50;98.00;;;;;;5000349;28;20430;-35
2024/03/28 12:35:58;;;;;;;1.47;0.90;;;11.50;97.90;;;;;;4998170;28;20468;-39
2024/03/28 12:38:25;;;;;;;3.03;0.90;;;11.50;97.80;;;;;;4996234;28;20540;-35
2024/03/28 12:40:56;;;;;;;2.60;0.80;;;11.50;97.60;;;;;;4994555;28;20428;-37
2024/03/28 12:43:24;;;;;;;2.10;0.80;;;11.50;97.50;;;;;;4995229;28;20433;-32
2024/03/28 12:46:05;;;;;;;1.57;0.90;;;11.60;97.40;;;;;;4991262;28;20548;-37
2024/03/28 12:48:32;;;;;;;1.23;0.80;;;11.60;97.30;;;;;;4995641;28;20455;-32
2024/03/28 12:50:58;;;;;;;0.80;0.80;;;11.60;97.10;;;;;;4996536;28;20433;-39
2024/03/28 12:53:24;;;;;;;4.50;0.90;;;11.60;97.00;;;;;;4994150;28;20479;-33
2024/03/28 12:55:50;;;;;;;2.73;1.00;;;11.60;96.70;;;;;;4993497;28;20563;-35
2024/03/28 12:58:16;;;;;;;1.67;0.60;;;11.60;96.70;;;;;;4995761;28;20989;-35